Time;durP1;ratioP1;P1;durP2;ratioP2;P2;SDS_P1;SDS_P2;PMS_P1;PMS_P2;Temp;Humidity;BMP_temperature;BMP_pressure;BME280_temperature;BME280_humidity;BME280_pressure;Samples;Min_cycle;Max_cycle;Signal;HPM_P1;HPM_P2
2023/07/05 00:00:28;;;;;;;5.80;5.30;;;;;;;-143.84;91.20;45056.69;4896123;29;20492;-57
2023/07/05 00:02:57;;;;;;;5.80;5.50;;;;;;;-143.84;91.40;45039.53;4894434;29;20452;-57
2023/07/05 00:05:24;;;;;;;6.40;5.80;;;;;;;-143.84;91.19;45041.44;4892897;29;20507;-57
2023/07/05 00:07:51;;;;;;;7.17;6.50;;;;;;;-143.84;91.54;45026.22;4903307;29;20510;-57
2023/07/05 00:10:18;;;;;;;8.47;5.57;;;;;;;-143.84;91.47;45012.88;4898908;29;20972;-57
2023/07/05 00:12:45;;;;;;;7.20;6.07;;;;;;;-143.84;91.53;45016.69;4901895;29;21155;-57
2023/07/05 00:15:12;;;;;;;6.10;5.70;;;;;;;-143.84;91.60;45047.16;4900271;29;20510;-57
2023/07/05 00:17:39;;;;;;;6.00;5.60;;;;;;;-143.84;91.77;45033.84;4893223;29;20520;-57
2023/07/05 00:20:10;;;;;;;9.63;6.80;;;;;;;-143.84;91.90;45022.41;4893796;29;20535;-57
2023/07/05 00:22:37;;;;;;;10.77;6.30;;;;;;;-143.84;91.97;45041.44;4899903;29;20467;-56
2023/07/05 00:25:04;;;;;;;6.70;6.00;;;;;;;-143.84;92.09;45022.41;4896743;29;20961;-56
2023/07/05 00:27:32;;;;;;;11.30;6.23;;;;;;;-143.84;92.12;45054.78;4897177;29;20549;-56
2023/07/05 00:29:59;;;;;;;6.40;5.90;;;;;;;-143.84;92.11;45010.97;4896132;29;20456;-56
2023/07/05 00:32:26;;;;;;;7.30;6.60;;;;;;;-143.84;91.83;45043.34;4898992;29;20455;-56
2023/07/05 00:34:53;;;;;;;12.27;5.43;;;;;;;-143.84;91.67;45056.69;4898569;29;21899;-56
2023/07/05 00:37:22;;;;;;;8.27;5.73;;;;;;;-143.84;91.92;45009.09;4896826;29;20526;-56
2023/07/05 00:39:49;;;;;;;6.97;6.20;;;;;;;-143.84;91.84;45030.03;4901746;29;20492;-56
2023/07/05 00:42:16;;;;;;;6.97;6.27;;;;;;;-143.84;91.95;45020.50;4898984;29;20551;-56
2023/07/05 00:45:01;;;;;;;8.13;6.90;;;;;;;-143.84;92.04;45026.22;4896667;29;20609;-56
2023/07/05 00:47:34;;;;;;;7.80;7.07;;;;;;;-143.84;92.20;45010.97;4898357;29;20989;-56
2023/07/05 00:50:13;;;;;;;7.10;6.17;;;;;;;-143.84;92.53;45026.22;4903088;29;21110;-56
2023/07/05 00:52:42;;;;;;;7.27;6.53;;;;;;;-143.84;92.41;45033.84;4897433;29;20950;-56
2023/07/05 00:55:10;;;;;;;8.30;7.50;;;;;;;-143.84;92.72;45022.41;4896025;29;20463;-55
2023/07/05 00:57:39;;;;;;;7.53;6.80;;;;;;;-143.84;92.98;44995.75;4894849;29;20559;-56
2023/07/05 01:00:11;;;;;;;8.53;6.57;;;;;;;-143.84;93.05;45014.78;4899825;29;20524;-56
2023/07/05 01:02:40;;;;;;;8.93;6.97;;;;;;;-143.84;93.20;45035.75;4900318;29;20455;-56
2023/07/05 01:05:09;;;;;;;9.93;6.93;;;;;;;-143.84;92.79;44999.56;4897707;29;20476;-56
2023/07/05 01:07:37;;;;;;;7.00;6.40;;;;;;;-143.84;92.91;45020.50;4895198;29;20471;-56
2023/07/05 01:10:07;;;;;;;6.37;5.87;;;;;;;-143.84;93.00;44986.22;4895642;29;20459;-56
2023/07/05 01:12:41;;;;;;;6.93;6.10;;;;;;;-143.84;93.11;45031.94;4894398;29;21065;-56
2023/07/05 01:15:13;;;;;;;7.97;6.70;;;;;;;-143.84;92.88;45020.50;4897257;29;20622;-56
2023/07/05 01:17:47;;;;;;;7.40;6.80;;;;;;;-143.84;93.00;45030.03;4901219;29;20454;-55
2023/07/05 01:20:26;;;;;;;7.17;6.67;;;;;;;-143.84;93.01;45018.59;4913534;29;21048;-56
2023/07/05 01:23:33;;;;;;;7.33;6.57;;;;;;;-143.84;93.28;45030.03;4913356;29;20514;-55
2023/07/05 01:26:50;;;;;;;6.60;6.17;;;;;;;-143.84;93.48;45009.09;4884300;29;20462;-56
2023/07/05 01:29:50;;;;;;;6.43;5.67;;;;;;;-143.84;93.36;45020.50;4835784;29;20570;-56
2023/07/05 01:32:23;;;;;;;7.00;6.40;;;;;;;-143.84;93.40;44991.94;4854524;29;20459;-56
2023/07/05 01:34:57;;;;;;;11.83;6.30;;;;;;;-143.84;93.46;45020.50;4902831;29;20458;-56
2023/07/05 01:37:37;;;;;;;7.93;6.87;;;;;;;-143.84;93.54;45026.22;4913144;29;20833;-56
2023/07/05 01:40:15;;;;;;;6.53;5.97;;;;;;;-143.84;93.43;45003.38;4913144;29;20439;-56
2023/07/05 01:42:44;;;;;;;6.80;6.17;;;;;;;-143.84;93.54;45001.47;4912883;29;20446;-56
2023/07/05 01:45:12;;;;;;;5.93;5.43;;;;;;;-143.84;93.06;45012.88;4912437;29;21017;-56
2023/07/05 01:47:50;;;;;;;9.57;6.30;;;;;;;-143.84;93.19;44990.03;4912897;29;20546;-56
2023/07/05 01:50:26;;;;;;;6.20;5.70;;;;;;;-143.84;93.34;44997.66;4912595;29;20516;-56
2023/07/05 01:53:02;;;;;;;9.10;6.40;;;;;;;-143.84;93.72;45012.88;4913067;29;20439;-56
2023/07/05 01:55:36;;;;;;;7.80;6.47;;;;;;;-143.84;93.84;45009.09;4913205;29;20878;-56
2023/07/05 01:58:07;;;;;;;6.00;5.47;;;;;;;-143.84;93.93;44982.41;4913136;29;20880;-56
2023/07/05 02:00:37;;;;;;;7.50;6.37;;;;;;;-143.84;94.16;45022.41;4912778;29;20498;-56
2023/07/05 02:03:12;;;;;;;6.77;6.20;;;;;;;-143.84;94.24;44984.31;4912417;29;20534;-56
2023/07/05 02:05:39;;;;;;;7.23;6.50;;;;;;;-143.84;94.16;44999.56;4912530;29;20865;-56
2023/07/05 02:08:06;;;;;;;6.23;5.73;;;;;;;-143.84;94.32;45005.28;4912618;29;20519;-56
2023/07/05 02:10:34;;;;;;;6.97;5.47;;;;;;;-143.84;94.53;45010.97;4912747;29;20905;-56
2023/07/05 02:13:07;;;;;;;5.97;5.67;;;;;;;-143.84;94.42;44965.28;4912381;29;20450;-56
2023/07/05 02:15:35;;;;;;;6.83;6.30;;;;;;;-143.84;94.27;44971.00;4912319;29;20533;-56
2023/07/05 02:18:02;;;;;;;6.73;6.13;;;;;;;-143.84;94.45;44948.16;4912984;29;20553;-56
2023/07/05 02:20:31;;;;;;;6.63;6.13;;;;;;;-143.84;94.71;44965.28;4912817;29;20577;-56
2023/07/05 02:22:59;;;;;;;5.80;5.30;;;;;;;-143.84;94.79;44988.13;4912813;29;20449;-56
2023/07/05 02:25:26;;;;;;;9.83;5.87;;;;;;;-143.84;94.82;44984.31;4912755;29;20517;-55
2023/07/05 02:27:53;;;;;;;6.60;6.20;;;;;;;-143.84;94.82;44976.72;4912818;29;21022;-56
2023/07/05 02:30:22;;;;;;;12.03;5.50;;;;;;;-143.84;95.06;44961.47;4912762;29;20510;-56
2023/07/05 02:32:49;;;;;;;7.30;6.10;;;;;;;-143.84;95.13;44969.09;4912682;29;20932;-56
2023/07/05 02:35:16;;;;;;;9.03;6.03;;;;;;;-143.84;95.34;44976.72;4912898;29;20876;-56
2023/07/05 02:37:45;;;;;;;6.37;5.87;;;;;;;-143.84;95.43;44931.00;4912583;29;21120;-56
2023/07/05 02:40:13;;;;;;;6.50;5.90;;;;;;;-143.84;95.45;44951.97;4912692;29;20898;-56
2023/07/05 02:42:40;;;;;;;6.20;5.80;;;;;;;-143.84;95.56;44965.28;4912762;29;20458;-56
2023/07/05 02:45:08;;;;;;;6.40;5.90;;;;;;;-143.84;95.96;44900.53;4912382;29;21053;-56
2023/07/05 02:47:35;;;;;;;6.63;6.13;;;;;;;-143.84;96.32;44911.97;4912979;29;20450;-56
2023/07/05 02:50:02;;;;;;;6.03;5.63;;;;;;;-143.84;96.41;44906.25;4912440;29;20523;-56
2023/07/05 02:52:29;;;;;;;8.63;6.20;;;;;;;-143.84;96.56;44873.88;4912240;29;20970;-56
2023/07/05 02:54:57;;;;;;;6.80;6.10;;;;;;;-143.84;96.81;44862.47;4912607;29;20439;-56
2023/07/05 02:57:24;;;;;;;6.43;5.97;;;;;;;-143.84;96.74;44860.56;4912786;29;20528;-56
2023/07/05 02:59:52;;;;;;;6.70;6.20;;;;;;;-143.84;96.76;44858.66;4912805;29;20448;-56
2023/07/05 03:02:19;;;;;;;6.73;6.23;;;;;;;-143.84;96.68;44879.59;4912626;29;20494;-56
2023/07/05 03:04:48;;;;;;;11.93;6.33;;;;;;;-143.84;96.75;44854.84;4916160;29;20521;-56
2023/07/05 03:07:15;;;;;;;7.60;6.33;;;;;;;-143.84;96.53;44881.50;4915570;29;20515;-56
2023/07/05 03:09:48;;;;;;;7.50;6.90;;;;;;;-143.84;96.53;44877.69;4915603;29;20508;-56
2023/07/05 03:12:17;;;;;;;8.20;6.73;;;;;;;-143.84;96.57;44894.84;4915647;29;20977;-56
2023/07/05 03:14:44;;;;;;;9.53;5.87;;;;;;;-143.84;96.64;44879.59;4915431;29;20494;-56
2023/07/05 03:17:11;;;;;;;6.50;5.87;;;;;;;-143.84;96.72;44864.38;4915529;29;20511;-56
2023/07/05 03:19:38;;;;;;;6.40;5.97;;;;;;;-143.84;96.64;44854.84;4915422;29;20459;-56
2023/07/05 03:22:05;;;;;;;6.60;6.00;;;;;;;-143.84;96.68;44892.94;4915569;29;20513;-56
2023/07/05 03:24:33;;;;;;;7.43;6.73;;;;;;;-143.84;96.56;44833.91;4915498;29;20491;-56
2023/07/05 03:27:00;;;;;;;6.80;6.10;;;;;;;-143.84;96.56;44868.19;4914991;29;20511;-56
2023/07/05 03:29:28;;;;;;;6.83;6.00;;;;;;;-143.84;96.48;44858.66;4915064;29;20522;-56
2023/07/05 03:31:55;;;;;;;6.50;6.10;;;;;;;-143.84;96.65;44868.19;4914913;29;20844;-55
2023/07/05 03:34:22;;;;;;;6.60;6.10;;;;;;;-143.84;96.01;44877.69;4915324;29;20511;-55
2023/07/05 03:36:49;;;;;;;5.90;5.40;;;;;;;-143.84;95.70;44913.88;4915105;29;20444;-56
2023/07/05 03:39:17;;;;;;;5.57;5.17;;;;;;;-143.84;93.82;44919.59;4915003;29;20515;-56
2023/07/05 03:41:44;;;;;;;12.53;5.23;;;;;;;-143.84;89.58;44999.56;4914767;29;20503;-55
2023/07/05 03:44:12;;;;;;;7.13;4.30;;;;;;;-143.84;85.31;45026.22;4915105;29;20977;-55
2023/07/05 03:46:42;;;;;;;4.50;4.20;;;;;;;-143.84;80.40;45054.78;4914667;29;20492;-55
2023/07/05 03:49:10;;;;;;;11.60;3.63;;;;;;;-143.84;75.74;45022.41;4914824;29;20458;-56
2023/07/05 03:51:37;;;;;;;4.03;3.67;;;;;;;-143.84;72.70;44997.66;4914747;29;20444;-56
2023/07/05 03:54:05;;;;;;;4.83;3.00;;;;;;;-143.84;70.37;44974.81;4914843;29;20830;-56
2023/07/05 03:56:33;;;;;;;6.00;3.53;;;;;;;-143.84;68.68;44990.03;4914595;29;20445;-56
2023/07/05 03:59:00;;;;;;;4.53;3.13;;;;;;;-143.84;67.03;44995.75;4913755;29;20540;-56
2023/07/05 04:01:29;;;;;;;3.17;2.80;;;;;;;-143.84;65.15;44999.56;4914688;29;20499;-56
2023/07/05 04:04:02;;;;;;;4.80;2.67;;;;;;;-143.84;63.40;44997.66;4914432;29;20448;-56
2023/07/05 04:06:32;;;;;;;5.73;2.90;;;;;;;-143.84;62.17;44961.47;4914378;29;20460;-56
2023/07/05 04:08:59;;;;;;;3.50;2.40;;;;;;;-143.84;61.46;44961.47;4914269;29;21046;-56
2023/07/05 04:11:26;;;;;;;3.57;2.50;;;;;;;-143.84;60.59;44988.13;4914010;29;20444;-56
2023/07/05 04:13:55;;;;;;;3.20;2.87;;;;;;;-143.84;58.74;44969.09;4913926;29;20994;-57
2023/07/05 04:16:25;;;;;;;4.50;2.53;;;;;;;-143.84;58.36;44974.81;4914378;29;20974;-56
2023/07/05 04:18:54;;;;;;;4.33;2.50;;;;;;;-143.84;58.02;44944.34;4914067;29;20989;-56
2023/07/05 04:21:24;;;;;;;6.83;2.10;;;;;;;-143.84;56.56;44931.00;4914291;29;20919;-56
2023/07/05 04:23:51;;;;;;;2.20;2.00;;;;;;;-143.84;57.49;44990.03;4914313;29;20494;-56
2023/07/05 04:26:20;;;;;;;5.30;2.20;;;;;;;-143.84;57.95;44969.09;4914262;29;20528;-56
2023/07/05 04:28:47;;;;;;;2.20;2.10;;;;;;;-143.84;56.75;44938.63;4914157;29;20477;-56
2023/07/05 04:31:17;;;;;;;2.47;2.30;;;;;;;-143.84;57.25;44984.31;4913889;29;20504;-56
2023/07/05 04:33:44;;;;;;;4.10;2.63;;;;;;;-143.84;58.50;44978.63;4913835;29;20940;-56
2023/07/05 04:36:11;;;;;;;5.63;2.83;;;;;;;-143.84;59.24;44957.66;4914082;29;20467;-56
2023/07/05 04:38:40;;;;;;;3.90;2.60;;;;;;;-143.84;60.71;44971.00;4913817;29;20519;-56
2023/07/05 04:41:07;;;;;;;4.03;3.00;;;;;;;-143.84;61.77;44993.84;4913793;29;21212;-56
2023/07/05 04:43:34;;;;;;;16.13;3.50;;;;;;;-143.84;62.02;44980.53;4913632;29;20520;-56
2023/07/05 04:46:01;;;;;;;3.03;2.37;;;;;;;-143.84;63.34;44974.81;4913490;29;20519;-56
2023/07/05 04:48:31;;;;;;;6.53;2.87;;;;;;;-143.84;63.58;44993.84;4913482;29;20702;-56
2023/07/05 04:50:58;;;;;;;5.37;2.43;;;;;;;-143.84;62.66;45003.38;4913206;29;20495;-56
2023/07/05 04:53:28;;;;;;;5.83;3.00;;;;;;;-143.84;62.80;44999.56;4913458;29;20459;-56
2023/07/05 04:55:59;;;;;;;2.70;2.50;;;;;;;-143.84;63.12;44976.72;4913233;29;20512;-56
2023/07/05 04:58:27;;;;;;;8.37;2.70;;;;;;;-143.84;64.57;44999.56;4913629;29;20531;-56
2023/07/05 05:01:02;;;;;;;4.37;2.73;;;;;;;-143.84;65.06;44967.19;4913470;29;20448;-56
2023/07/05 05:03:30;;;;;;;7.73;2.70;;;;;;;-143.84;66.33;44991.94;4913726;29;20480;-56
2023/07/05 05:05:57;;;;;;;3.97;2.90;;;;;;;-143.84;65.86;44965.28;4913524;29;20973;-56
2023/07/05 05:08:25;;;;;;;5.63;2.77;;;;;;;-143.84;64.56;44980.53;4913242;29;20452;-56
2023/07/05 05:10:52;;;;;;;3.47;2.40;;;;;;;-143.84;62.89;44991.94;4913134;29;20476;-56
2023/07/05 05:13:22;;;;;;;3.50;2.00;;;;;;;-143.84;62.10;44988.13;4913537;29;20455;-56
2023/07/05 05:15:49;;;;;;;3.00;2.80;;;;;;;-143.84;61.79;44971.00;4913108;29;20500;-56
2023/07/05 05:18:17;;;;;;;2.93;2.73;;;;;;;-143.84;63.31;44993.84;4913668;29;20448;-56
2023/07/05 05:20:45;;;;;;;23.27;14.20;;;;;;;-143.84;62.39;44963.38;4913253;29;21006;-58
2023/07/05 05:23:13;;;;;;;17.07;13.53;;;;;;;-143.84;63.44;45007.19;4913082;29;20484;-57
2023/07/05 05:25:42;;;;;;;13.20;9.67;;;;;;;-143.84;63.06;44993.84;4912336;29;20448;-57
2023/07/05 05:28:09;;;;;;;4.80;2.63;;;;;;;-143.84;62.00;44993.84;4912724;29;21175;-56
2023/07/05 05:30:38;;;;;;;7.07;2.50;;;;;;;-143.84;59.29;44934.81;4912742;29;20500;-57
2023/07/05 05:33:06;;;;;;;5.07;2.50;;;;;;;-143.84;57.95;44963.38;4912999;29;20460;-57
2023/07/05 05:35:34;;;;;;;5.40;2.33;;;;;;;-143.84;56.99;44965.28;4913091;29;20445;-57
2023/07/05 05:38:02;;;;;;;7.87;3.00;;;;;;;-143.84;55.77;44934.81;4912935;29;20912;-57
2023/07/05 05:40:29;;;;;;;3.97;2.30;;;;;;;-143.84;55.27;44934.81;4912868;29;20445;-57
2023/07/05 05:42:58;;;;;;;2.40;2.20;;;;;;;-143.84;54.58;44953.88;4913003;29;20480;-57
2023/07/05 05:45:25;;;;;;;8.30;2.60;;;;;;;-143.84;54.85;44923.41;4913188;29;20512;-57
2023/07/05 05:47:53;;;;;;;2.70;2.30;;;;;;;-143.84;51.67;44940.53;4913137;29;20998;-57
2023/07/05 05:50:22;;;;;;;12.03;2.40;;;;;;;-143.84;50.67;44910.06;4913041;29;20492;-57
2023/07/05 05:52:49;;;;;;;5.53;2.30;;;;;;;-143.84;49.99;44917.69;4912829;29;20460;-57
2023/07/05 05:55:17;;;;;;;2.77;2.57;;;;;;;-143.84;49.71;44925.31;4912705;29;20453;-57
2023/07/05 05:57:44;;;;;;;3.43;2.40;;;;;;;-143.84;47.49;44913.88;4912507;29;20448;-57
2023/07/05 06:00:12;;;;;;;6.77;2.33;;;;;;;-143.84;48.17;44913.88;4912614;29;20445;-57
2023/07/05 06:02:40;;;;;;;6.80;2.03;;;;;;;-143.84;47.34;44944.34;4912701;29;20501;-57
2023/07/05 06:05:09;;;;;;;2.20;2.03;;;;;;;-143.84;47.91;44929.09;4912661;29;20444;-57
2023/07/05 06:07:36;;;;;;;3.57;2.47;;;;;;;-143.84;47.81;44896.75;4912291;29;20822;-57
2023/07/05 06:10:04;;;;;;;3.83;2.10;;;;;;;-143.84;46.87;44934.81;4912103;29;20513;-57
2023/07/05 06:12:31;;;;;;;3.13;2.30;;;;;;;-143.84;47.12;44946.25;4912350;29;20504;-57
2023/07/05 06:14:58;;;;;;;3.63;1.70;;;;;;;-143.84;47.41;44919.59;4912096;29;20484;-57
2023/07/05 06:17:26;;;;;;;2.70;2.00;;;;;;;-143.84;46.70;44904.34;4912403;29;20956;-57
2023/07/05 06:19:53;;;;;;;3.10;2.47;;;;;;;-143.84;47.03;44931.00;4912816;29;20448;-57
2023/07/05 06:22:21;;;;;;;5.43;2.50;;;;;;;-143.84;49.14;44917.69;4912169;29;20500;-57
2023/07/05 06:24:48;;;;;;;10.87;3.17;;;;;;;-143.84;47.96;44919.59;4912389;29;20520;-57
2023/07/05 06:27:17;;;;;;;2.33;2.13;;;;;;;-143.84;48.77;44934.81;4912430;29;20453;-57
2023/07/05 06:29:44;;;;;;;2.83;2.00;;;;;;;-143.84;48.84;44921.50;4912262;29;20448;-57
2023/07/05 06:32:11;;;;;;;7.77;3.17;;;;;;;-143.84;49.99;44917.69;4912102;29;20493;-57
2023/07/05 06:34:38;;;;;;;7.23;2.83;;;;;;;-143.84;51.65;44931.00;4911704;29;20955;-57
2023/07/05 06:37:06;;;;;;;4.40;2.43;;;;;;;-143.84;52.05;44940.53;4912511;29;20536;-57
2023/07/05 06:39:34;;;;;;;3.43;2.47;;;;;;;-143.84;49.99;44934.81;4915569;29;20582;-57
2023/07/05 06:42:02;;;;;;;3.33;2.70;;;;;;;-143.84;49.37;44931.00;4915561;29;20488;-57
2023/07/05 06:44:29;;;;;;;4.30;2.20;;;;;;;-143.84;47.82;44934.81;4915120;29;20447;-56
2023/07/05 06:46:56;;;;;;;2.60;2.30;;;;;;;-143.84;47.20;44942.44;4915628;29;20440;-56
2023/07/05 06:49:24;;;;;;;4.17;2.33;;;;;;;-143.84;48.23;44908.16;4915860;29;20445;-56
2023/07/05 06:51:51;;;;;;;7.47;2.70;;;;;;;-143.84;48.67;44925.31;4915656;29;20456;-57
2023/07/05 06:54:18;;;;;;;1.87;1.77;;;;;;;-143.84;47.01;44913.88;4915875;29;20512;-57
2023/07/05 06:56:47;;;;;;;2.30;2.10;;;;;;;-143.84;47.12;44898.66;4915568;29;21341;-57
2023/07/05 06:59:14;;;;;;;3.83;2.17;;;;;;;-143.84;46.11;44887.22;4915488;29;20488;-57
2023/07/05 07:01:42;;;;;;;4.70;2.40;;;;;;;-143.84;45.40;44891.03;4915457;29;20829;-56
2023/07/05 07:04:10;;;;;;;2.43;2.10;;;;;;;-143.84;46.88;44915.78;4916065;29;20563;-56
2023/07/05 07:06:37;;;;;;;5.70;2.27;;;;;;;-143.84;46.15;44906.25;4904710;29;20449;-56
2023/07/05 07:09:05;;;;;;;7.73;2.50;;;;;;;-143.84;45.01;44900.53;4896805;29;20512;-56
2023/07/05 07:11:32;;;;;;;2.70;2.50;;;;;;;-143.84;44.47;44929.09;4896834;29;20512;-56
2023/07/05 07:14:02;;;;;;;5.10;2.80;;;;;;;-143.84;45.09;44894.84;4896180;29;20458;-56
2023/07/05 07:16:30;;;;;;;5.43;2.53;;;;;;;-143.84;47.46;44934.81;4896893;29;20511;-56
2023/07/05 07:18:59;;;;;;;3.10;2.80;;;;;;;-143.84;48.63;44923.41;4896573;29;20957;-56
2023/07/05 07:21:26;;;;;;;2.10;1.90;;;;;;;-143.84;47.98;44921.50;4896393;29;20509;-56
2023/07/05 07:23:53;;;;;;;4.40;2.33;;;;;;;-143.84;46.96;44887.22;4896604;29;20493;-56
2023/07/05 07:26:22;;;;;;;2.93;2.17;;;;;;;-143.84;47.15;44883.41;4896467;29;20450;-56
2023/07/05 07:28:51;;;;;;;3.47;1.90;;;;;;;-143.84;46.66;44913.88;4896577;29;20438;-56
2023/07/05 07:31:21;;;;;;;4.53;2.20;;;;;;;-143.84;46.08;44904.34;4896336;29;20456;-56
2023/07/05 07:33:49;;;;;;;5.87;2.27;;;;;;;-143.84;45.88;44891.03;4896193;29;20458;-56
2023/07/05 07:36:18;;;;;;;4.00;2.27;;;;;;;-143.84;45.25;44911.97;4896352;29;20453;-56
2023/07/05 07:38:45;;;;;;;3.07;2.47;;;;;;;-143.84;46.97;44911.97;4896351;29;20485;-56
2023/07/05 07:41:14;;;;;;;2.80;2.37;;;;;;;-143.84;47.10;44894.84;4896258;29;20509;-56
2023/07/05 07:43:41;;;;;;;2.60;2.40;;;;;;;-143.84;43.64;44866.28;4896529;29;21085;-56
2023/07/05 07:46:10;;;;;;;9.70;2.60;;;;;;;-143.84;42.65;44887.22;4896340;29;20532;-56
2023/07/05 07:48:42;;;;;;;3.00;2.60;;;;;;;-143.84;43.32;44856.75;4895486;29;20449;-56
2023/07/05 07:51:09;;;;;;;6.67;2.83;;;;;;;-143.84;43.15;44915.78;4896170;29;20461;-56
2023/07/05 07:53:37;;;;;;;6.30;2.40;;;;;;;-143.84;42.11;44875.78;4895948;29;20516;-56
2023/07/05 07:56:12;;;;;;;3.40;2.60;;;;;;;-143.84;43.29;44896.75;4896093;29;20513;-56
2023/07/05 07:58:39;;;;;;;17.00;13.97;;;;;;;-143.84;42.04;44891.03;4895938;29;20463;-58
2023/07/05 08:01:14;;;;;;;42.10;31.10;;;;;;;-143.84;42.68;44892.94;4895934;29;20465;-58
2023/07/05 08:03:43;;;;;;;3.13;2.93;;;;;;;-143.84;44.04;44887.22;4895916;29;20521;-56
2023/07/05 08:06:10;;;;;;;5.60;2.53;;;;;;;-143.84;44.38;44910.06;4896165;29;20460;-56
2023/07/05 08:08:40;;;;;;;2.70;2.50;;;;;;;-143.84;44.36;44883.41;4896253;29;20449;-56
2023/07/05 08:11:08;;;;;;;7.37;2.47;;;;;;;-143.84;44.60;44885.31;4896067;29;20450;-56
2023/07/05 08:13:40;;;;;;;3.30;2.83;;;;;;;-143.84;45.00;44885.31;4895878;29;20979;-56
2023/07/05 08:16:07;;;;;;;3.60;2.90;;;;;;;-143.84;44.81;44883.41;4895540;29;20473;-56
2023/07/05 08:18:34;;;;;;;3.00;2.80;;;;;;;-143.84;44.82;44887.22;4895634;29;20541;-56
2023/07/05 08:21:03;;;;;;;5.87;3.33;;;;;;;-143.84;44.73;44889.13;4895856;29;20449;-56
2023/07/05 08:23:31;;;;;;;3.03;2.83;;;;;;;-143.84;45.40;44883.41;4895880;29;20901;-56
2023/07/05 08:26:00;;;;;;;3.00;2.80;;;;;;;-143.84;45.13;44870.09;4895821;29;20497;-56
2023/07/05 08:28:29;;;;;;;5.40;3.17;;;;;;;-143.84;45.13;44883.41;4895678;29;20488;-56
2023/07/05 08:30:57;;;;;;;3.10;2.90;;;;;;;-143.84;45.87;44870.09;4895801;29;20501;-56
2023/07/05 08:33:26;;;;;;;2.80;2.60;;;;;;;-143.84;44.80;44896.75;4895797;29;21205;-56
2023/07/05 08:36:11;;;;;;;3.47;2.73;;;;;;;-143.84;45.69;44881.50;4895533;29;20492;-56
2023/07/05 08:38:40;;;;;;;6.60;2.83;;;;;;;-143.84;45.33;44889.13;4895487;29;20460;-56
2023/07/05 08:41:17;;;;;;;2.73;2.53;;;;;;;-143.84;45.79;44908.16;4895811;29;20541;-56
2023/07/05 08:43:48;;;;;;;4.67;2.20;;;;;;;-143.84;46.21;44885.31;4895388;29;20556;-56
2023/07/05 08:46:17;;;;;;;5.70;2.53;;;;;;;-143.84;46.11;44889.13;4894962;29;20521;-56
2023/07/05 08:48:47;;;;;;;3.60;2.77;;;;;;;-143.84;45.90;44889.13;4895500;29;20454;-56
2023/07/05 08:51:18;;;;;;;7.40;2.83;;;;;;;-143.84;47.37;44883.41;4895482;29;20479;-56
2023/07/05 08:53:48;;;;;;;2.47;2.20;;;;;;;-143.84;46.41;44896.75;4895321;29;20452;-56
2023/07/05 08:56:21;;;;;;;2.50;2.30;;;;;;;-143.84;47.00;44900.53;4894997;29;20478;-56
2023/07/05 08:58:56;;;;;;;2.83;2.50;;;;;;;-143.84;47.69;44902.44;4896017;29;20484;-56
2023/07/05 09:01:27;;;;;;;3.23;3.03;;;;;;;-143.84;46.83;44902.44;4894032;29;20460;-56
2023/07/05 09:03:54;;;;;;;3.07;2.80;;;;;;;-143.84;48.25;44940.53;4895182;29;20612;-56
2023/07/05 09:06:30;;;;;;;9.73;2.70;;;;;;;-143.84;50.54;44873.88;4895099;29;20446;-56
2023/07/05 09:09:08;;;;;;;4.40;2.50;;;;;;;-143.84;49.08;44921.50;4895309;29;20779;-56
2023/07/05 09:11:46;;;;;;;5.10;3.00;;;;;;;-143.84;47.83;44896.75;4897670;29;20461;-56
2023/07/05 09:14:29;;;;;;;9.90;3.00;;;;;;;-143.84;49.42;44921.50;4913749;29;20484;-56
2023/07/05 09:17:03;;;;;;;3.50;2.43;;;;;;;-143.84;46.43;44913.88;4913946;29;20440;-56
2023/07/05 09:19:44;;;;;;;2.17;1.93;;;;;;;-143.84;46.85;44915.78;4913612;29;20440;-56
2023/07/05 09:22:16;;;;;;;3.10;2.90;;;;;;;-143.84;46.89;44881.50;4913299;29;20452;-56
2023/07/05 09:24:45;;;;;;;3.67;2.93;;;;;;;-143.84;46.15;44875.78;4913734;29;20448;-56
2023/07/05 09:27:18;;;;;;;3.53;2.20;;;;;;;-143.84;46.41;44898.66;4913735;29;20863;-56
2023/07/05 09:29:51;;;;;;;2.70;2.50;;;;;;;-143.84;45.47;44889.13;4913456;29;21273;-56
2023/07/05 09:32:20;;;;;;;7.50;1.80;;;;;;;-143.84;45.18;44908.16;4913526;29;20532;-56
2023/07/05 09:34:54;;;;;;;2.33;2.03;;;;;;;-143.84;45.20;44911.97;4913582;29;20444;-56
2023/07/05 09:37:26;;;;;;;4.10;2.33;;;;;;;-143.84;47.10;44902.44;4913313;29;20512;-56
2023/07/05 09:40:06;;;;;;;5.20;2.60;;;;;;;-143.84;48.26;44904.34;4907707;29;20454;-56
2023/07/05 09:42:39;;;;;;;6.37;2.60;;;;;;;-143.84;45.69;44885.31;4895192;29;20484;-56
2023/07/05 09:45:11;;;;;;;9.07;2.70;;;;;;;-143.84;46.06;44900.53;4894079;29;20526;-56
2023/07/05 09:47:38;;;;;;;4.27;2.07;;;;;;;-143.84;45.01;44881.50;4893814;29;20449;-56
2023/07/05 09:50:13;;;;;;;6.33;2.27;;;;;;;-143.84;45.00;44881.50;4894371;29;20464;-56
2023/07/05 09:52:42;;;;;;;2.20;2.00;;;;;;;-143.84;46.16;44883.41;4894300;29;20453;-56
2023/07/05 09:55:14;;;;;;;3.90;2.43;;;;;;;-143.84;44.73;44917.69;4894267;29;20470;-56
2023/07/05 09:57:42;;;;;;;5.17;2.03;;;;;;;-143.84;46.29;44873.88;4894070;29;20823;-56
2023/07/05 10:00:23;;;;;;;2.43;2.23;;;;;;;-143.84;45.52;44887.22;4893892;29;20442;-56
2023/07/05 10:02:52;;;;;;;2.40;2.07;;;;;;;-143.84;45.44;44885.31;4894314;29;20503;-56
2023/07/05 10:05:28;;;;;;;6.20;2.10;;;;;;;-143.84;43.96;44900.53;4894394;29;20474;-56
2023/07/05 10:07:59;;;;;;;1.83;1.73;;;;;;;-143.84;43.64;44919.59;4894322;29;20448;-56
2023/07/05 10:10:28;;;;;;;4.10;2.07;;;;;;;-143.84;45.03;44902.44;4894852;29;20445;-55
2023/07/05 10:13:06;;;;;;;2.93;1.57;;;;;;;-143.84;44.48;44889.13;4894756;29;20564;-56
2023/07/05 10:15:33;;;;;;;3.97;2.63;;;;;;;-143.84;43.95;44891.03;4901439;29;20487;-56
2023/07/05 10:18:00;;;;;;;3.33;1.90;;;;;;;-143.84;42.68;44868.19;4903078;29;20460;-56
2023/07/05 10:20:33;;;;;;;3.00;2.10;;;;;;;-143.84;41.03;44900.53;4908035;29;20436;-56
2023/07/05 10:23:04;;;;;;;3.83;1.70;;;;;;;-143.84;40.68;44877.69;4902556;29;20489;-57
2023/07/05 10:25:34;;;;;;;5.13;1.57;;;;;;;-143.84;40.52;44919.59;4906674;29;20517;-57
2023/07/05 10:28:04;;;;;;;1.77;1.67;;;;;;;-143.84;41.36;44925.31;4899064;29;20468;-57
2023/07/05 10:30:33;;;;;;;7.33;1.80;;;;;;;-143.84;42.03;44910.06;4900655;29;20441;-57
2023/07/05 10:33:20;;;;;;;8.20;2.27;;;;;;;-143.84;44.61;44902.44;4902111;29;20455;-57
2023/07/05 10:35:53;;;;;;;5.27;2.43;;;;;;;-143.84;44.64;44911.97;4896340;29;20464;-57
2023/07/05 10:38:27;;;;;;;4.77;2.23;;;;;;;-143.84;44.56;44892.94;4895920;29;20448;-57
2023/07/05 10:40:59;;;;;;;2.43;2.00;;;;;;;-143.84;41.98;44902.44;4899386;29;20445;-56
2023/07/05 10:43:26;;;;;;;3.10;1.87;;;;;;;-143.84;42.77;44915.78;4897620;29;20488;-57
2023/07/05 10:45:54;;;;;;;2.37;2.20;;;;;;;-143.84;44.52;44892.94;4899319;29;20476;-57
2023/07/05 10:48:27;;;;;;;6.63;2.23;;;;;;;-143.84;42.91;44885.31;4899872;29;20449;-57
2023/07/05 10:50:54;;;;;;;2.07;1.87;;;;;;;-143.84;41.98;44911.97;4898569;29;20445;-57
2023/07/05 10:53:27;;;;;;;2.37;1.70;;;;;;;-143.84;42.59;44896.75;4894870;29;20452;-57
2023/07/05 10:56:03;;;;;;;1.77;1.50;;;;;;;-143.84;42.95;44896.75;4898981;29;20444;-57
2023/07/05 10:58:41;;;;;;;8.40;2.07;;;;;;;-143.84;42.33;44900.53;4897939;29;20449;-57
2023/07/05 11:01:16;;;;;;;2.23;2.03;;;;;;;-143.84;44.36;44931.00;4892676;29;20935;-57
2023/07/05 11:03:48;;;;;;;6.73;1.90;;;;;;;-143.84;44.05;44906.25;4893225;29;20495;-57
2023/07/05 11:06:17;;;;;;;4.30;2.07;;;;;;;-143.84;42.48;44896.75;4901155;29;20450;-57
2023/07/05 11:08:46;;;;;;;10.40;1.90;;;;;;;-143.84;40.96;44917.69;4900236;29;20523;-57
2023/07/05 11:11:17;;;;;;;9.33;1.83;;;;;;;-143.84;41.17;44921.50;4892423;29;20519;-57
2023/07/05 11:13:46;;;;;;;6.73;2.03;;;;;;;-143.84;42.18;44898.66;4893872;29;20548;-57
2023/07/05 11:16:19;;;;;;;2.10;1.37;;;;;;;-143.84;41.17;44891.03;4898490;29;20564;-57
2023/07/05 11:18:47;;;;;;;2.47;1.80;;;;;;;-143.84;41.25;44915.78;4905678;29;20520;-57
2023/07/05 11:21:36;;;;;;;5.40;1.67;;;;;;;-143.84;41.54;44915.78;4901848;29;20471;-57
2023/07/05 11:24:06;;;;;;;2.93;2.27;;;;;;;-143.84;42.34;44921.50;4903728;29;20491;-57
2023/07/05 11:26:51;;;;;;;2.10;1.73;;;;;;;-143.84;39.95;44913.88;4904756;29;20575;-57
2023/07/05 11:29:53;;;;;;;1.97;1.87;;;;;;;-143.84;40.79;44942.44;4895277;29;21319;-57